createdAt,value
2022-08-30T00:02:57.262Z,23.50
2022-08-30T00:08:01.068Z,23.30
2022-08-30T00:13:06.551Z,23.40
2022-08-30T00:18:09.643Z,23.50
2022-08-30T00:23:13.149Z,23.20
2022-08-30T00:28:17.834Z,22.90
2022-08-30T00:33:20.785Z,22.50
2022-08-30T00:38:24.261Z,22.70
2022-08-30T00:43:30.793Z,22.70
2022-08-30T00:48:36.019Z,22.70
2022-08-30T00:53:45.480Z,22.30
2022-08-30T00:58:53.023Z,22.40
2022-08-30T01:03:56.289Z,22.70
2022-08-30T01:08:59.588Z,22.70
2022-08-30T01:14:04.982Z,22.70
2022-08-30T01:19:19.270Z,22.60
2022-08-30T01:24:23.806Z,22.30
2022-08-30T01:29:28.656Z,22.40
2022-08-30T01:34:31.560Z,22.50
2022-08-30T01:39:36.072Z,22.40
2022-08-30T01:44:38.979Z,22.20
2022-08-30T01:49:42.695Z,22.30
2022-08-30T01:54:47.602Z,22.20
2022-08-30T01:59:51.579Z,21.90
2022-08-30T02:04:55.229Z,22.00
2022-08-30T02:09:59.726Z,22.20
2022-08-30T02:15:02.622Z,21.90
2022-08-30T02:20:06.441Z,21.80
2022-08-30T02:25:11.225Z,21.90
2022-08-30T02:30:24.067Z,21.80
2022-08-30T02:35:27.227Z,21.90
2022-08-30T02:40:31.592Z,21.80
2022-08-30T02:45:34.944Z,21.70
2022-08-30T02:50:41.411Z,21.60
2022-08-30T02:55:46.010Z,21.20
2022-08-30T03:00:48.894Z,21.30
2022-08-30T03:05:55.415Z,21.30
2022-08-30T03:10:59.988Z,21.10
2022-08-30T03:16:03.114Z,20.80
2022-08-30T03:21:11.180Z,21.00
2022-08-30T03:26:15.649Z,21.10
2022-08-30T03:31:18.560Z,21.10
2022-08-30T03:36:21.708Z,21.00
2022-08-30T03:41:26.095Z,20.90
2022-08-30T03:46:29.510Z,20.90
2022-08-30T03:51:33.132Z,20.80
2022-08-30T03:56:37.434Z,20.80
2022-08-30T04:01:41.963Z,20.80
2022-08-30T04:06:44.901Z,20.80
2022-08-30T04:11:49.250Z,20.80
2022-08-30T04:16:52.248Z,20.80
2022-08-30T04:21:55.110Z,20.60
2022-08-30T04:26:59.298Z,20.40
2022-08-30T04:32:02.485Z,20.50
2022-08-30T04:37:05.571Z,20.40
2022-08-30T04:42:14.366Z,20.50
2022-08-30T04:47:18.266Z,20.50
2022-08-30T04:52:21.291Z,20.50
2022-08-30T04:57:27.222Z,20.30
2022-08-30T05:02:30.187Z,20.10
2022-08-30T05:07:34.031Z,20.20
2022-08-30T05:12:38.624Z,20.10
2022-08-30T05:17:42.106Z,20.10
2022-08-30T05:22:50.370Z,20.00
2022-08-30T05:27:58.188Z,19.90
2022-08-30T05:33:01.416Z,20.00
2022-08-30T05:38:04.320Z,20.20
2022-08-30T05:43:08.549Z,20.10
2022-08-30T05:48:12.973Z,20.20
2022-08-30T05:53:15.998Z,20.20
2022-08-30T05:58:20.246Z,20.10
2022-08-30T06:03:23.208Z,20.20
2022-08-30T06:08:26.288Z,20.20
2022-08-30T06:13:32.300Z,20.30
2022-08-30T06:18:35.311Z,20.30
2022-08-30T06:23:38.144Z,20.40
2022-08-30T06:28:42.872Z,20.30
2022-08-30T06:33:46.192Z,20.30
2022-08-30T06:38:52.021Z,20.30
2022-08-30T06:43:57.753Z,20.30
2022-08-30T06:49:01.356Z,20.50
2022-08-30T06:54:05.802Z,20.70
2022-08-30T06:59:13.626Z,20.90
2022-08-30T07:04:16.606Z,20.90
2022-08-30T07:09:19.928Z,21.10
2022-08-30T07:14:27.370Z,21.20
2022-08-30T07:19:30.233Z,21.50
2022-08-30T07:24:33.112Z,21.70
2022-08-30T07:29:37.321Z,21.60
2022-08-30T07:34:40.155Z,21.90
2022-08-30T07:39:47.585Z,22.10
2022-08-30T07:44:56.505Z,22.40
2022-08-30T07:50:00.660Z,22.40
2022-08-30T07:55:03.708Z,22.60
2022-08-30T08:00:09.382Z,22.70
2022-08-30T08:05:17.757Z,22.70
2022-08-30T08:10:21.670Z,22.80
2022-08-30T08:15:26.381Z,22.90
2022-08-30T08:20:29.495Z,22.90
2022-08-30T08:25:32.937Z,23.10
2022-08-30T08:30:38.702Z,23.10
2022-08-30T08:35:41.771Z,23.00
2022-08-30T08:40:56.605Z,23.20
2022-08-30T08:46:07.129Z,23.20
2022-08-30T08:51:32.194Z,23.60
2022-08-30T08:56:35.148Z,23.60
2022-08-30T09:01:40.304Z,23.80
2022-08-30T09:06:51.860Z,23.90
2022-08-30T09:11:54.802Z,23.90
2022-08-30T09:17:05.214Z,24.00
2022-08-30T09:22:17.166Z,24.20
2022-08-30T09:27:27.778Z,24.50
2022-08-30T09:32:35.426Z,24.70
2022-08-30T09:37:46.573Z,24.90
2022-08-30T09:43:12.643Z,25.00
2022-08-30T09:48:29.022Z,25.10
2022-08-30T09:53:36.231Z,25.30
2022-08-30T09:59:04.433Z,25.30
2022-08-30T10:04:18.516Z,25.40
2022-08-30T10:09:31.338Z,25.80
2022-08-30T10:14:51.602Z,26.00
2022-08-30T10:20:04.757Z,25.90
2022-08-30T10:25:12.034Z,26.00
2022-08-30T10:30:19.718Z,26.20
2022-08-30T10:35:27.383Z,26.20
2022-08-30T10:40:54.419Z,26.30
2022-08-30T10:46:03.254Z,26.60
2022-08-30T10:51:11.476Z,26.80
2022-08-30T10:56:20.493Z,26.90
2022-08-30T11:01:37.390Z,26.80
2022-08-30T11:06:59.770Z,27.00
2022-08-30T11:12:33.713Z,26.90
2022-08-30T11:17:45.822Z,26.90
2022-08-30T11:23:29.061Z,27.10
2022-08-30T11:29:02.946Z,27.20
2022-08-30T11:34:07.446Z,27.70
2022-08-30T11:39:13.155Z,27.60
2022-08-30T11:44:31.238Z,27.90
2022-08-30T11:49:58.558Z,28.20
2022-08-30T11:55:17.855Z,28.20
2022-08-30T12:00:35.150Z,28.20
2022-08-30T12:06:02.704Z,28.40
2022-08-30T12:11:09.880Z,28.60
2022-08-30T12:16:16.615Z,28.80
2022-08-30T12:21:31.320Z,28.80
2022-08-30T12:26:48.024Z,29.00
2022-08-30T12:31:56.073Z,29.00
2022-08-30T12:37:04.803Z,29.00
2022-08-30T12:42:17.869Z,29.00
2022-08-30T12:47:26.051Z,29.20
2022-08-30T12:52:34.709Z,29.40
2022-08-30T12:57:39.458Z,29.70
2022-08-30T13:02:51.965Z,29.60
2022-08-30T13:08:10.004Z,29.60
2022-08-30T13:13:29.132Z,29.60
2022-08-30T13:18:33.668Z,29.60
2022-08-30T13:23:36.528Z,29.70
2022-08-30T13:28:48.966Z,29.80
2022-08-30T13:33:53.854Z,30.00
2022-08-30T13:38:58.098Z,30.10
2022-08-30T13:44:16.484Z,30.10
2022-08-30T13:54:47.959Z,30.40
2022-08-30T13:59:53.071Z,30.60
2022-08-30T14:05:02.204Z,30.80
2022-08-30T14:15:30.072Z,30.70
2022-08-30T14:20:38.436Z,30.80
2022-08-30T14:25:41.845Z,30.80
2022-08-30T14:30:44.998Z,30.80
2022-08-30T14:35:49.336Z,30.70
2022-08-30T14:40:52.178Z,30.90
2022-08-30T14:45:55.106Z,31.10
2022-08-30T14:51:00.360Z,31.00
2022-08-30T14:56:08.310Z,30.80
2022-08-30T15:01:13.188Z,30.80
2022-08-30T15:06:17.974Z,30.70
2022-08-30T15:11:22.705Z,30.50
2022-08-30T15:16:28.084Z,30.60
2022-08-30T15:21:34.325Z,30.60
2022-08-30T15:26:41.680Z,30.60
2022-08-30T15:31:45.523Z,30.60
2022-08-30T15:36:54.038Z,30.70
2022-08-30T15:42:00.653Z,30.50
2022-08-30T15:47:04.042Z,30.50
2022-08-30T15:52:08.401Z,30.50
2022-08-30T15:57:11.349Z,30.50
2022-08-30T16:02:14.281Z,30.40
2022-08-30T16:07:22.021Z,30.30
2022-08-30T16:12:24.882Z,30.10
2022-08-30T16:17:27.869Z,30.10
2022-08-30T16:22:32.064Z,29.90
2022-08-30T16:27:35.690Z,29.90
2022-08-30T16:32:39.666Z,29.80
2022-08-30T16:37:54.504Z,29.80
2022-08-30T16:42:58.152Z,29.80
2022-08-30T16:48:16.202Z,30.00
2022-08-30T16:53:27.523Z,29.70
2022-08-30T16:58:36.949Z,29.60
2022-08-30T17:03:42.029Z,29.60
2022-08-30T17:08:47.677Z,29.50
2022-08-30T17:13:58.820Z,29.40
2022-08-30T17:19:05.840Z,29.20
2022-08-30T17:24:17.923Z,29.10
2022-08-30T17:29:21.832Z,29.00
2022-08-30T17:34:34.050Z,28.90
2022-08-30T17:39:38.880Z,28.80
2022-08-30T17:44:46.897Z,28.60
2022-08-30T17:49:50.251Z,28.60
2022-08-30T17:55:02.658Z,28.50
2022-08-30T18:00:33.534Z,28.50
2022-08-30T18:06:11.558Z,28.60
2022-08-30T18:11:17.990Z,28.50
2022-08-30T18:16:27.477Z,28.30
2022-08-30T18:21:31.095Z,28.10
2022-08-30T18:26:46.665Z,28.10
2022-08-30T18:31:49.800Z,27.80
2022-08-30T18:36:57.556Z,27.70
2022-08-30T18:42:02.434Z,27.60
2022-08-30T18:47:38.327Z,27.40
2022-08-30T18:52:42.042Z,27.30
2022-08-30T18:57:49.417Z,27.20
2022-08-30T19:02:52.842Z,27.10
2022-08-30T19:07:55.826Z,27.00
2022-08-30T19:13:02.867Z,27.10
2022-08-30T19:18:17.138Z,27.10
2022-08-30T19:23:23.222Z,27.30
2022-08-30T19:28:30.491Z,27.50
2022-08-30T19:33:33.606Z,27.30
2022-08-30T19:38:37.011Z,27.20
2022-08-30T19:43:42.584Z,27.30
2022-08-30T19:48:45.463Z,27.40
2022-08-30T19:53:48.412Z,27.50
2022-08-30T19:58:52.658Z,27.40
2022-08-30T20:03:56.755Z,27.40
2022-08-30T20:09:00.415Z,27.50
2022-08-30T20:14:05.332Z,27.40
2022-08-30T20:19:10.376Z,27.50
2022-08-30T20:24:14.444Z,27.50
2022-08-30T20:29:18.691Z,27.60
2022-08-30T20:34:27.167Z,27.60
2022-08-30T20:39:30.234Z,27.50
2022-08-30T20:44:34.532Z,27.50
2022-08-30T20:49:37.548Z,27.40
2022-08-30T20:54:40.581Z,27.30
2022-08-30T20:59:44.875Z,27.40
2022-08-30T21:04:47.967Z,27.10
2022-08-30T21:09:51.266Z,26.80
2022-08-30T21:14:55.537Z,26.60
2022-08-30T21:19:58.883Z,26.30
2022-08-30T21:25:02.684Z,26.10
2022-08-30T21:30:07.876Z,25.80
2022-08-30T21:35:29.015Z,25.60
2022-08-30T21:40:31.998Z,25.20
2022-08-30T21:45:39.664Z,25.10
2022-08-30T21:50:43.846Z,25.00
2022-08-30T21:55:47.946Z,24.60
2022-08-30T22:00:54.487Z,24.60
2022-08-30T22:05:57.512Z,24.40
2022-08-30T22:11:00.962Z,24.30
2022-08-30T22:16:05.840Z,24.10
2022-08-30T22:21:10.449Z,23.90
2022-08-30T22:26:15.294Z,23.80
2022-08-30T22:31:20.940Z,24.00
2022-08-30T22:36:32.748Z,24.00
2022-08-30T22:41:36.007Z,24.30
2022-08-30T22:46:40.498Z,24.30
2022-08-30T22:51:43.940Z,24.30
2022-08-30T22:56:46.813Z,24.30
2022-08-30T23:01:51.078Z,23.80
2022-08-30T23:06:54.028Z,24.20
2022-08-30T23:11:57.222Z,24.20
2022-08-30T23:17:01.621Z,24.20
2022-08-30T23:22:04.501Z,24.10
2022-08-30T23:27:24.650Z,24.20
2022-08-30T23:32:46.590Z,24.20
2022-08-30T23:38:07.011Z,24.10
2022-08-30T23:43:27.806Z,24.10
2022-08-30T23:48:51.941Z,24.00
2022-08-30T23:54:12.751Z,24.10
2022-08-30T23:59:33.073Z,23.90
